createdAt,value
2018-08-16T00:00:43.228Z,10.99
2018-08-16T00:01:43.183Z,11.02
2018-08-16T00:02:43.157Z,11.03
2018-08-16T00:03:43.186Z,11.02
2018-08-16T00:04:43.079Z,10.96
2018-08-16T00:05:43.019Z,10.96
2018-08-16T00:06:42.999Z,11.03
2018-08-16T00:07:42.969Z,10.99
2018-08-16T00:08:42.930Z,10.99
2018-08-16T00:09:42.875Z,10.99
2018-08-16T00:10:42.849Z,11.00
2018-08-16T00:11:42.804Z,11.00
2018-08-16T00:12:42.770Z,10.94
2018-08-16T00:13:42.729Z,10.91
2018-08-16T00:14:42.692Z,10.84
2018-08-16T00:15:42.654Z,10.81
2018-08-16T00:16:42.613Z,10.78
2018-08-16T00:17:42.577Z,10.78
2018-08-16T00:18:42.553Z,10.67
2018-08-16T00:19:42.507Z,10.71
2018-08-16T00:20:42.461Z,10.70
2018-08-16T00:21:42.437Z,10.70
2018-08-16T00:22:42.388Z,10.70
2018-08-16T00:23:42.355Z,10.67
2018-08-16T00:24:42.339Z,10.53
2018-08-16T00:25:42.286Z,10.59
2018-08-16T00:26:42.255Z,10.63
2018-08-16T00:27:42.222Z,10.59
2018-08-16T00:28:42.188Z,10.61
2018-08-16T00:29:42.139Z,10.64
2018-08-16T00:30:42.117Z,10.63
2018-08-16T00:31:42.057Z,10.53
2018-08-16T00:32:42.022Z,10.59
2018-08-16T00:33:41.989Z,10.56
2018-08-16T00:34:41.950Z,10.68
2018-08-16T00:35:41.901Z,10.64
2018-08-16T00:36:41.864Z,10.66
2018-08-16T00:37:41.845Z,10.60
2018-08-16T00:38:41.800Z,10.56
2018-08-16T00:39:41.762Z,10.42
2018-08-16T00:40:41.707Z,10.45
2018-08-16T00:41:41.703Z,10.48
2018-08-16T00:42:41.644Z,10.42
2018-08-16T00:43:41.609Z,10.53
2018-08-16T00:44:41.568Z,10.52
2018-08-16T00:45:41.552Z,10.52
2018-08-16T00:46:41.508Z,10.51
2018-08-16T00:47:41.463Z,10.40
2018-08-16T00:48:41.438Z,10.33
2018-08-16T00:49:41.377Z,10.36
2018-08-16T00:50:41.346Z,10.38
2018-08-16T00:51:41.312Z,10.36
2018-08-16T00:52:41.274Z,10.36
2018-08-16T00:53:41.221Z,10.32
2018-08-16T00:54:41.195Z,10.22
2018-08-16T00:55:41.189Z,10.23
2018-08-16T00:56:41.122Z,10.12
2018-08-16T00:57:41.091Z,10.12
2018-08-16T00:58:41.040Z,10.08
2018-08-16T00:59:40.993Z,10.12
2018-08-16T01:00:40.972Z,10.20
2018-08-16T01:01:40.942Z,10.41
2018-08-16T01:02:40.902Z,10.45
2018-08-16T01:03:40.856Z,10.45
2018-08-16T01:04:40.809Z,10.34
2018-08-16T01:05:40.800Z,10.33
2018-08-16T01:08:23.679Z,10.48
2018-08-16T01:09:23.743Z,10.40
2018-08-16T01:10:23.551Z,10.27
2018-08-16T01:11:23.481Z,10.26
2018-08-16T01:12:23.457Z,10.11
2018-08-16T01:13:23.418Z,9.99
2018-08-16T01:14:23.370Z,10.01
2018-08-16T01:15:23.367Z,10.05
2018-08-16T01:16:23.316Z,10.09
2018-08-16T01:17:23.385Z,10.11
2018-08-16T01:18:23.232Z,10.14
2018-08-16T01:19:23.182Z,10.04
2018-08-16T01:20:23.134Z,10.12
2018-08-16T01:21:23.105Z,9.94
2018-08-16T01:22:23.062Z,10.04
2018-08-16T01:23:23.031Z,10.12
2018-08-16T01:24:22.998Z,10.07
2018-08-16T01:25:22.981Z,10.04
2018-08-16T01:26:23.005Z,9.97
2018-08-16T01:27:22.876Z,9.91
2018-08-16T01:28:22.854Z,9.79
2018-08-16T01:29:22.808Z,9.65
2018-08-16T01:30:22.772Z,9.68
2018-08-16T01:31:22.720Z,9.68
2018-08-16T01:32:22.697Z,9.69
2018-08-16T01:33:22.655Z,9.58
2018-08-16T01:34:22.633Z,9.61
2018-08-16T01:35:22.579Z,9.61
2018-08-16T01:36:22.545Z,9.50
2018-08-16T01:37:22.502Z,9.47
2018-08-16T01:38:22.472Z,9.48
2018-08-16T01:39:22.429Z,9.48
2018-08-16T01:40:22.372Z,9.58
2018-08-16T01:41:22.338Z,9.50
2018-08-16T01:42:22.320Z,9.50
2018-08-16T01:43:22.288Z,9.64
2018-08-16T01:44:22.229Z,9.72
2018-08-16T01:45:22.193Z,9.69
2018-08-16T01:46:22.154Z,9.79
2018-08-16T01:47:22.115Z,9.87
2018-08-16T01:48:22.081Z,9.90
2018-08-16T01:49:22.036Z,9.89
2018-08-16T01:50:22.044Z,9.81
2018-08-16T01:51:21.984Z,9.90
2018-08-16T01:52:21.934Z,9.99
2018-08-16T01:53:21.897Z,10.05
2018-08-16T01:54:21.884Z,9.97
2018-08-16T01:55:21.820Z,10.11
2018-08-16T01:56:21.793Z,10.08
2018-08-16T01:57:21.735Z,10.08
2018-08-16T01:58:21.713Z,10.01
2018-08-16T01:59:21.677Z,9.99
2018-08-16T02:00:21.632Z,9.89
2018-08-16T02:01:21.591Z,9.74
2018-08-16T02:02:21.577Z,9.68
2018-08-16T02:03:21.509Z,9.78
2018-08-16T02:04:21.467Z,9.81
2018-08-16T02:05:21.444Z,9.89
2018-08-16T02:06:21.411Z,9.84
2018-08-16T02:07:21.358Z,9.93
2018-08-16T02:08:21.330Z,9.99
2018-08-16T02:09:21.291Z,9.94
2018-08-16T02:10:21.263Z,10.08
2018-08-16T02:11:21.217Z,10.08
2018-08-16T02:12:21.182Z,9.94
2018-08-16T02:13:21.131Z,9.93
2018-08-16T02:14:21.096Z,9.93
2018-08-16T02:15:21.075Z,9.93
2018-08-16T02:16:21.014Z,9.99
2018-08-16T02:17:20.987Z,10.01
2018-08-16T02:18:20.948Z,10.08
2018-08-16T02:19:20.899Z,10.05
2018-08-16T02:20:20.864Z,9.97
2018-08-16T02:21:20.849Z,9.89
2018-08-16T02:22:20.801Z,9.90
2018-08-16T02:23:20.770Z,9.89
2018-08-16T02:24:20.718Z,9.78
2018-08-16T02:25:20.678Z,9.76
2018-08-16T02:26:20.640Z,9.68
2018-08-16T02:27:20.605Z,9.69
2018-08-16T02:28:20.565Z,9.71
2018-08-16T02:29:20.527Z,9.69
2018-08-16T02:30:20.483Z,9.53
2018-08-16T02:31:20.474Z,9.48
2018-08-16T02:32:20.424Z,9.46
2018-08-16T02:33:20.378Z,9.50
2018-08-16T02:34:20.343Z,9.65
2018-08-16T02:35:20.288Z,9.75
2018-08-16T02:36:20.268Z,9.91
2018-08-16T02:37:20.219Z,9.90
2018-08-16T02:38:20.181Z,9.91
2018-08-16T02:39:20.143Z,9.87
2018-08-16T02:40:20.112Z,9.84
2018-08-16T02:41:20.073Z,9.68
2018-08-16T02:42:20.027Z,9.69
2018-08-16T02:43:19.993Z,9.68
2018-08-16T02:44:19.944Z,9.74
2018-08-16T02:45:19.932Z,9.56
2018-08-16T02:46:19.873Z,9.51
2018-08-16T02:47:19.842Z,9.51
2018-08-16T02:48:19.806Z,9.35
2018-08-16T02:49:19.775Z,9.33
2018-08-16T02:50:19.720Z,9.50
2018-08-16T02:51:19.675Z,9.48
2018-08-16T02:52:19.661Z,9.47
2018-08-16T02:53:19.610Z,9.50
2018-08-16T02:54:19.570Z,9.57
2018-08-16T02:55:19.535Z,9.51
2018-08-16T02:56:19.484Z,9.57
2018-08-16T02:57:19.458Z,9.57
2018-08-16T02:58:19.412Z,9.53
2018-08-16T02:59:19.395Z,9.42
2018-08-16T03:00:19.336Z,9.33
2018-08-16T03:01:19.310Z,9.39
2018-08-16T03:02:19.262Z,9.32
2018-08-16T03:03:19.218Z,9.35
2018-08-16T03:04:19.184Z,9.35
2018-08-16T03:05:19.152Z,9.40
2018-08-16T03:06:19.109Z,9.35
2018-08-16T03:07:19.066Z,9.39
2018-08-16T03:08:19.023Z,9.38
2018-08-16T03:09:18.994Z,9.35
2018-08-16T03:10:18.968Z,9.31
2018-08-16T03:11:18.919Z,9.32
2018-08-16T03:12:18.873Z,9.33
2018-08-16T03:13:18.840Z,9.46
2018-08-16T03:14:18.808Z,9.35
2018-08-16T03:15:18.759Z,9.38
2018-08-16T03:16:18.728Z,9.36
2018-08-16T03:17:18.689Z,9.35
2018-08-16T03:18:18.652Z,9.42
2018-08-16T03:19:18.608Z,9.38
2018-08-16T03:20:18.588Z,9.46
2018-08-16T03:21:18.600Z,9.53
2018-08-16T03:22:18.490Z,9.58
2018-08-16T03:23:18.461Z,9.58
2018-08-16T03:24:18.419Z,9.48
2018-08-16T03:25:18.384Z,9.51
2018-08-16T03:26:18.343Z,9.38
2018-08-16T03:27:18.293Z,9.36
2018-08-16T03:28:18.270Z,9.36
2018-08-16T03:29:18.227Z,9.36
2018-08-16T03:30:18.190Z,9.21
2018-08-16T03:31:18.152Z,9.20
2018-08-16T03:32:18.109Z,9.20
2018-08-16T03:33:18.080Z,9.02
2018-08-16T03:34:18.031Z,9.13
2018-08-16T03:35:18.095Z,9.14
2018-08-16T03:36:17.971Z,9.17
2018-08-16T03:37:17.959Z,9.21
2018-08-16T03:38:17.931Z,9.40
2018-08-16T03:39:17.844Z,9.35
2018-08-16T03:40:17.827Z,9.51
2018-08-16T03:41:17.793Z,9.51
2018-08-16T03:42:17.729Z,9.51
2018-08-16T03:43:17.695Z,9.51
2018-08-16T03:44:17.667Z,9.47
2018-08-16T03:45:17.623Z,9.47
2018-08-16T03:46:17.589Z,9.48
2018-08-16T03:47:17.537Z,9.56
2018-08-16T03:48:17.604Z,9.58
2018-08-16T03:49:17.497Z,9.58
2018-08-16T03:50:17.462Z,9.65
2018-08-16T03:51:17.410Z,9.54
2018-08-16T03:52:17.422Z,9.46
2018-08-16T03:53:17.315Z,9.50
2018-08-16T03:54:17.267Z,9.46
2018-08-16T03:55:17.276Z,9.53
2018-08-16T03:56:17.225Z,9.64
2018-08-16T03:57:17.153Z,9.71
2018-08-16T03:58:17.134Z,9.66
2018-08-16T03:59:17.077Z,9.69
2018-08-16T04:00:17.034Z,9.57
2018-08-16T04:01:17.018Z,9.58
2018-08-16T04:02:16.980Z,9.51
2018-08-16T04:03:16.932Z,9.54
2018-08-16T04:04:16.886Z,9.46
2018-08-16T04:05:16.887Z,9.36
2018-08-16T04:06:16.811Z,9.43
2018-08-16T04:07:16.776Z,9.33
2018-08-16T04:08:16.734Z,9.32
2018-08-16T04:09:16.710Z,9.31
2018-08-16T04:10:16.680Z,9.26
2018-08-16T04:11:16.640Z,9.32
2018-08-16T04:12:16.596Z,9.42
2018-08-16T04:13:16.538Z,9.47
2018-08-16T04:14:16.514Z,9.54
2018-08-16T04:15:16.465Z,9.50
2018-08-16T04:16:16.424Z,9.58
2018-08-16T04:17:16.385Z,9.58
2018-08-16T04:18:16.338Z,9.56
2018-08-16T04:19:16.313Z,9.54
2018-08-16T04:20:16.256Z,9.47
2018-08-16T04:21:16.219Z,9.47
2018-08-16T04:22:16.188Z,9.39
2018-08-16T04:23:16.152Z,9.50
2018-08-16T04:24:16.115Z,9.43
2018-08-16T04:25:16.077Z,9.46
2018-08-16T04:26:16.020Z,9.50
2018-08-16T04:27:16.007Z,9.50
2018-08-16T04:28:15.961Z,9.53
2018-08-16T04:29:15.974Z,9.57
2018-08-16T04:30:15.887Z,9.60
2018-08-16T04:31:15.860Z,9.54
2018-08-16T04:32:15.802Z,9.68
2018-08-16T04:33:15.785Z,9.74
2018-08-16T04:34:15.725Z,9.72
2018-08-16T04:35:15.720Z,9.69
2018-08-16T04:36:15.646Z,9.69
2018-08-16T04:37:15.644Z,9.75
2018-08-16T04:38:15.584Z,9.72
2018-08-16T04:39:15.544Z,9.68
2018-08-16T04:40:15.505Z,9.66
2018-08-16T04:41:15.454Z,9.71
2018-08-16T04:42:15.422Z,9.75
2018-08-16T04:43:15.403Z,9.68
2018-08-16T04:44:15.367Z,9.68
2018-08-16T04:45:15.299Z,9.66
2018-08-16T04:46:15.341Z,9.71
2018-08-16T04:47:15.232Z,9.78
2018-08-16T04:48:15.189Z,9.86
2018-08-16T04:49:15.150Z,9.87
2018-08-16T04:50:15.113Z,9.91
2018-08-16T04:51:15.068Z,9.91
2018-08-16T04:52:15.036Z,9.96
2018-08-16T04:53:15.000Z,9.96
2018-08-16T04:54:14.959Z,9.99
2018-08-16T04:55:14.933Z,9.99
2018-08-16T04:56:14.947Z,10.09
2018-08-16T04:57:14.850Z,10.14
2018-08-16T04:58:14.849Z,10.25
2018-08-16T04:59:14.779Z,10.20
2018-08-16T05:00:14.753Z,10.30
2018-08-16T05:01:14.707Z,10.23
2018-08-16T05:02:14.682Z,10.40
2018-08-16T05:03:14.609Z,10.36
2018-08-16T05:04:14.574Z,10.32
2018-08-16T05:05:14.538Z,10.41
2018-08-16T05:06:14.490Z,10.52
2018-08-16T05:07:14.461Z,10.47
2018-08-16T05:08:14.421Z,10.47
2018-08-16T05:09:14.394Z,10.51
2018-08-16T05:10:14.338Z,10.55
2018-08-16T05:11:14.315Z,10.56
2018-08-16T05:12:14.281Z,10.59
2018-08-16T05:13:14.246Z,10.59
2018-08-16T05:14:14.197Z,10.60
2018-08-16T05:15:14.168Z,10.66
2018-08-16T05:16:14.122Z,10.71
2018-08-16T05:17:14.161Z,10.81
2018-08-16T05:18:14.038Z,10.73
2018-08-16T05:19:14.008Z,10.89
2018-08-16T05:20:14.052Z,10.92
2018-08-16T05:21:13.979Z,11.02
2018-08-16T05:22:13.900Z,11.03
2018-08-16T05:23:13.864Z,11.10
2018-08-16T05:24:13.823Z,11.15
2018-08-16T05:25:13.846Z,11.21
2018-08-16T05:26:13.777Z,11.29
2018-08-16T05:27:13.756Z,11.22
2018-08-16T05:28:13.722Z,11.43
2018-08-16T05:29:13.643Z,11.40
2018-08-16T05:30:13.640Z,11.29
2018-08-16T05:31:13.584Z,11.36
2018-08-16T05:32:13.570Z,11.42
2018-08-16T05:33:13.520Z,11.44
2018-08-16T05:34:13.476Z,11.46
2018-08-16T05:35:13.418Z,11.52
2018-08-16T05:36:13.432Z,11.65
2018-08-16T05:37:13.378Z,11.69
2018-08-16T05:38:13.292Z,11.73
2018-08-16T05:39:13.273Z,11.78
2018-08-16T05:40:13.231Z,11.79
2018-08-16T05:41:13.187Z,11.91
2018-08-16T05:42:13.171Z,11.91
2018-08-16T05:43:13.149Z,11.94
2018-08-16T05:44:13.088Z,12.05
2018-08-16T05:45:13.046Z,12.13
2018-08-16T05:46:13.018Z,12.13
2018-08-16T05:47:12.990Z,12.20
2018-08-16T05:48:12.950Z,12.24
2018-08-16T05:49:12.915Z,12.38
2018-08-16T05:50:12.874Z,12.39
2018-08-16T05:51:12.826Z,12.53
2018-08-16T05:52:12.797Z,12.50
2018-08-16T05:53:12.758Z,12.57
2018-08-16T05:54:12.730Z,12.67
2018-08-16T05:55:12.697Z,12.71
2018-08-16T05:56:12.650Z,12.87
2018-08-16T05:57:12.623Z,12.95
2018-08-16T05:58:12.585Z,13.05
2018-08-16T05:59:12.542Z,13.08
2018-08-16T06:00:12.525Z,13.17
2018-08-16T06:01:12.482Z,13.19
2018-08-16T06:02:12.429Z,13.23
2018-08-16T06:03:12.396Z,13.28
2018-08-16T06:04:12.372Z,13.39
2018-08-16T06:05:12.336Z,13.42
2018-08-16T06:06:12.286Z,13.67
2018-08-16T06:07:12.259Z,13.67
2018-08-16T06:08:12.210Z,13.66
2018-08-16T06:09:12.282Z,13.75
2018-08-16T06:10:12.145Z,13.84
2018-08-16T06:11:12.110Z,14.00
2018-08-16T06:12:12.092Z,14.15
2018-08-16T06:13:12.074Z,14.18
2018-08-16T06:14:12.011Z,14.15
2018-08-16T06:15:11.969Z,14.25
2018-08-16T06:16:11.920Z,14.42
2018-08-16T06:17:11.895Z,14.52
2018-08-16T06:18:11.863Z,14.62
2018-08-16T06:19:11.820Z,14.73
2018-08-16T06:20:11.783Z,14.72
2018-08-16T06:21:11.757Z,14.89
2018-08-16T06:22:11.717Z,14.96
2018-08-16T06:23:11.696Z,14.89
2018-08-16T06:24:11.784Z,15.06
2018-08-16T06:25:11.621Z,15.16
2018-08-16T06:26:11.575Z,15.29
2018-08-16T06:27:11.547Z,15.25
2018-08-16T06:28:11.528Z,15.23
2018-08-16T06:29:11.487Z,15.41
2018-08-16T06:30:11.438Z,15.46
2018-08-16T06:31:11.409Z,15.59
2018-08-16T06:32:11.370Z,15.49
2018-08-16T06:33:11.376Z,15.53
2018-08-16T06:34:11.302Z,15.60
2018-08-16T06:35:11.300Z,15.67
2018-08-16T06:36:11.237Z,15.75
2018-08-16T06:37:11.285Z,15.76
2018-08-16T06:38:11.185Z,15.86
2018-08-16T06:39:11.141Z,16.01
2018-08-16T06:40:11.091Z,16.09
2018-08-16T06:41:11.084Z,16.12
2018-08-16T06:42:11.038Z,16.25
2018-08-16T06:43:11.011Z,16.28
2018-08-16T06:44:10.973Z,16.39
2018-08-16T06:45:10.936Z,16.49
2018-08-16T06:46:10.922Z,16.53
2018-08-16T06:47:10.867Z,16.70
2018-08-16T06:48:10.845Z,16.68
2018-08-16T06:49:10.798Z,16.78
2018-08-16T06:50:10.761Z,16.89
2018-08-16T06:51:10.732Z,16.85
2018-08-16T06:52:10.685Z,17.03
2018-08-16T06:53:10.667Z,17.04
2018-08-16T06:54:10.631Z,17.19
2018-08-16T06:55:10.592Z,17.37
2018-08-16T06:56:10.554Z,17.52
2018-08-16T06:57:10.520Z,17.59
2018-08-16T06:58:10.506Z,17.89
2018-08-16T06:59:10.455Z,18.17
2018-08-16T07:00:10.414Z,18.75
2018-08-16T07:01:10.389Z,19.59
2018-08-16T07:02:10.437Z,20.64
2018-08-16T07:03:10.354Z,21.43
2018-08-16T07:04:10.294Z,22.15
2018-08-16T07:05:10.267Z,22.77
2018-08-16T07:06:10.238Z,23.54
2018-08-16T07:07:10.196Z,24.20
2018-08-16T07:08:10.194Z,24.71
2018-08-16T07:09:10.150Z,25.24
2018-08-16T07:10:10.112Z,25.64
2018-08-16T07:11:10.087Z,26.07
2018-08-16T07:12:10.223Z,26.51
2018-08-16T07:13:10.011Z,26.97
2018-08-16T07:14:10.007Z,26.92
2018-08-16T07:15:09.974Z,26.81
2018-08-16T07:16:09.931Z,26.62
2018-08-16T07:17:09.911Z,26.63
2018-08-16T07:18:09.881Z,26.63
2018-08-16T07:19:09.863Z,27.09
2018-08-16T07:20:09.828Z,27.50
2018-08-16T07:21:09.802Z,27.78
2018-08-16T07:22:09.785Z,28.03
2018-08-16T07:23:09.760Z,28.33
2018-08-16T07:24:09.722Z,28.70
2018-08-16T07:25:09.712Z,29.05
2018-08-16T07:26:09.723Z,29.30
2018-08-16T07:27:09.641Z,29.28
2018-08-16T07:28:09.657Z,29.60
2018-08-16T07:29:09.653Z,30.02
2018-08-16T07:30:09.630Z,30.43
2018-08-16T07:31:09.596Z,30.39
2018-08-16T07:32:09.536Z,30.45
2018-08-16T07:33:09.510Z,30.67
2018-08-16T07:34:09.493Z,30.86
2018-08-16T07:35:09.501Z,30.57
2018-08-16T07:36:09.471Z,30.62
2018-08-16T07:37:09.424Z,30.83
2018-08-16T07:38:09.418Z,31.04
2018-08-16T07:39:09.385Z,31.41
2018-08-16T07:40:09.348Z,31.50
2018-08-16T07:41:09.329Z,31.73
2018-08-16T07:42:09.309Z,31.70
2018-08-16T07:43:09.335Z,31.73
2018-08-16T07:44:09.297Z,31.41
2018-08-16T07:45:09.245Z,30.94
2018-08-16T07:46:09.347Z,30.92
2018-08-16T07:47:09.210Z,31.44
2018-08-16T07:48:09.177Z,31.43
2018-08-16T07:49:09.171Z,31.48
2018-08-16T07:50:09.152Z,31.56
2018-08-16T07:51:09.129Z,31.39
2018-08-16T07:52:09.163Z,31.56
2018-08-16T07:53:09.079Z,31.51
2018-08-16T07:54:09.053Z,31.53
2018-08-16T07:55:09.044Z,31.47
2018-08-16T07:56:09.018Z,31.54
2018-08-16T07:57:09.020Z,31.75
2018-08-16T07:58:09.002Z,31.85
2018-08-16T07:59:08.981Z,31.92
2018-08-16T08:00:08.948Z,32.03
2018-08-16T08:01:08.944Z,32.23
2018-08-16T08:02:08.925Z,32.29
2018-08-16T08:03:08.896Z,32.15
2018-08-16T08:04:08.862Z,31.78
2018-08-16T08:05:08.849Z,31.41
2018-08-16T08:06:08.843Z,31.47
2018-08-16T08:07:08.841Z,31.51
2018-08-16T08:08:08.792Z,31.41
2018-08-16T08:09:08.981Z,31.35
2018-08-16T08:10:08.809Z,31.69
2018-08-16T08:11:08.746Z,31.69
2018-08-16T08:12:08.726Z,31.53
2018-08-16T08:13:08.704Z,31.43
2018-08-16T08:14:08.687Z,30.84
2018-08-16T08:15:08.670Z,30.88
2018-08-16T08:16:08.666Z,31.21
2018-08-16T08:17:08.644Z,30.91
2018-08-16T08:18:08.622Z,30.97
2018-08-16T08:19:08.595Z,31.31
2018-08-16T08:20:08.590Z,31.34
2018-08-16T08:21:08.567Z,31.16
2018-08-16T08:22:08.548Z,31.44
2018-08-16T08:23:08.530Z,31.51
2018-08-16T08:24:08.513Z,31.61
2018-08-16T08:25:08.505Z,31.66
2018-08-16T08:26:08.513Z,31.43
2018-08-16T08:27:08.515Z,31.57
2018-08-16T08:28:08.451Z,31.57
2018-08-16T08:29:08.422Z,31.12
2018-08-16T08:30:08.410Z,30.51
2018-08-16T08:31:08.396Z,30.49
2018-08-16T08:32:08.383Z,30.64
2018-08-16T08:33:08.362Z,30.95
2018-08-16T08:34:08.334Z,31.02
2018-08-16T08:35:08.319Z,31.43
2018-08-16T08:36:08.307Z,31.13
2018-08-16T08:37:08.294Z,31.01
2018-08-16T08:38:08.271Z,31.54
2018-08-16T08:39:08.247Z,31.73
2018-08-16T08:40:08.247Z,31.56
2018-08-16T08:41:08.208Z,31.72
2018-08-16T08:42:08.215Z,31.91
2018-08-16T08:43:08.185Z,31.99
2018-08-16T08:44:08.157Z,31.93
2018-08-16T08:45:08.151Z,32.26
2018-08-16T08:46:08.134Z,32.00
2018-08-16T08:47:08.123Z,31.56
2018-08-16T08:48:08.119Z,31.50
2018-08-16T08:49:08.079Z,31.57
2018-08-16T08:50:08.063Z,31.70
2018-08-16T08:51:08.066Z,31.81
2018-08-16T08:52:08.017Z,32.29
2018-08-16T08:53:07.998Z,31.34
2018-08-16T08:54:07.997Z,31.72
2018-08-16T08:55:07.976Z,31.80
2018-08-16T08:56:07.950Z,32.25
2018-08-16T08:57:07.927Z,32.26
2018-08-16T08:58:07.928Z,32.60
2018-08-16T08:59:07.906Z,32.74
2018-08-16T09:00:07.894Z,32.96
2018-08-16T09:01:07.866Z,32.70
2018-08-16T09:02:07.855Z,32.41
2018-08-16T09:03:07.834Z,32.40
2018-08-16T09:04:07.808Z,32.22
2018-08-16T09:05:08.513Z,32.51
2018-08-16T09:06:07.786Z,32.56
2018-08-16T09:07:08.424Z,32.87
2018-08-16T09:08:08.503Z,32.78
2018-08-16T09:09:09.932Z,32.79
2018-08-16T09:10:10.423Z,32.70
2018-08-16T09:11:07.711Z,32.79
2018-08-16T09:12:08.403Z,33.14
2018-08-16T09:13:10.452Z,32.33
2018-08-16T09:14:08.185Z,32.06
2018-08-16T09:15:07.924Z,31.70
2018-08-16T09:16:07.646Z,31.38
2018-08-16T09:17:07.721Z,31.53
2018-08-16T09:18:08.767Z,31.75
2018-08-16T09:19:12.574Z,32.22
2018-08-16T09:20:08.963Z,31.88
2018-08-16T09:21:07.836Z,32.07
2018-08-16T09:22:08.061Z,32.07
2018-08-16T09:23:08.609Z,32.01
2018-08-16T09:24:07.705Z,32.22
2018-08-16T09:25:10.795Z,32.01
2018-08-16T09:26:07.695Z,31.39
2018-08-16T09:27:07.858Z,31.46
2018-08-16T09:28:07.409Z,31.58
2018-08-16T09:29:07.425Z,31.85
2018-08-16T09:30:07.384Z,31.31
2018-08-16T09:31:07.357Z,31.16
2018-08-16T09:32:07.316Z,31.65
2018-08-16T09:33:07.323Z,32.13
2018-08-16T09:34:07.296Z,32.15
2018-08-16T09:35:07.258Z,31.78
2018-08-16T09:36:07.257Z,32.23
2018-08-16T09:37:07.242Z,31.85
2018-08-16T09:38:07.212Z,31.85
2018-08-16T09:39:07.207Z,31.88
2018-08-16T09:40:07.220Z,31.43
2018-08-16T09:41:07.207Z,31.26
2018-08-16T09:42:07.172Z,31.13
2018-08-16T09:43:07.172Z,31.66
2018-08-16T09:44:07.121Z,32.18
2018-08-16T09:45:07.133Z,32.26
2018-08-16T09:46:07.104Z,32.25
2018-08-16T09:47:07.101Z,31.85
2018-08-16T09:48:07.051Z,32.23
2018-08-16T09:49:07.066Z,32.72
2018-08-16T09:50:07.069Z,33.16
2018-08-16T09:51:06.997Z,33.29
2018-08-16T09:52:07.000Z,32.97
2018-08-16T09:53:06.963Z,32.35
2018-08-16T09:54:06.952Z,32.22
2018-08-16T09:55:06.918Z,32.62
2018-08-16T09:56:06.923Z,32.50
2018-08-16T09:57:06.873Z,32.60
2018-08-16T09:58:06.877Z,32.81
2018-08-16T09:59:06.881Z,33.19
2018-08-16T10:00:06.861Z,33.38
2018-08-16T10:01:06.820Z,32.94
2018-08-16T10:02:06.850Z,32.65
2018-08-16T10:03:06.798Z,32.37
2018-08-16T10:04:06.774Z,31.86
2018-08-16T10:05:06.754Z,32.11
2018-08-16T10:06:06.735Z,32.41
2018-08-16T10:07:06.754Z,32.48
2018-08-16T10:08:06.705Z,32.81
2018-08-16T10:09:06.670Z,32.92
2018-08-16T10:10:06.656Z,32.94
2018-08-16T10:11:06.640Z,32.87
2018-08-16T10:12:06.618Z,32.38
2018-08-16T10:13:06.600Z,32.18
2018-08-16T10:14:06.590Z,32.32
2018-08-16T10:15:06.563Z,32.23
2018-08-16T10:16:06.550Z,32.00
2018-08-16T10:17:06.545Z,32.40
2018-08-16T10:18:06.513Z,32.94
2018-08-16T10:19:06.489Z,33.22
2018-08-16T10:20:06.467Z,33.69
2018-08-16T10:21:06.456Z,34.12
2018-08-16T10:22:06.457Z,34.10
2018-08-16T10:23:06.420Z,33.90
2018-08-16T10:24:06.417Z,33.60
2018-08-16T10:25:06.392Z,32.66
2018-08-16T10:26:06.377Z,32.67
2018-08-16T10:27:06.374Z,32.18
2018-08-16T10:28:06.343Z,31.81
2018-08-16T10:29:06.332Z,32.10
2018-08-16T10:30:06.309Z,32.18
2018-08-16T10:31:06.290Z,32.41
2018-08-16T10:32:06.269Z,32.21
2018-08-16T10:33:06.264Z,32.50
2018-08-16T10:34:06.239Z,32.97
2018-08-16T10:35:06.258Z,32.94
2018-08-16T10:36:06.218Z,32.87
2018-08-16T10:37:06.227Z,33.18
2018-08-16T10:38:06.159Z,33.75
2018-08-16T10:39:06.145Z,34.05
2018-08-16T10:40:06.125Z,33.44
2018-08-16T10:41:06.095Z,32.84
2018-08-16T10:42:06.107Z,32.97
2018-08-16T10:43:06.074Z,33.31
2018-08-16T10:44:06.050Z,33.59
2018-08-16T10:45:06.094Z,33.75
2018-08-16T10:46:06.005Z,33.65
2018-08-16T10:47:06.016Z,33.91
2018-08-16T10:48:06.006Z,34.16
2018-08-16T10:49:05.982Z,33.97
2018-08-16T10:50:05.934Z,33.63
2018-08-16T10:51:05.976Z,33.71
2018-08-16T10:52:05.978Z,33.11
2018-08-16T10:53:05.893Z,33.12
2018-08-16T10:54:05.894Z,33.04
2018-08-16T10:55:05.862Z,33.38
2018-08-16T10:56:05.858Z,33.68
2018-08-16T10:57:05.822Z,33.69
2018-08-16T10:58:05.811Z,32.88
2018-08-16T10:59:05.800Z,32.30
2018-08-16T11:00:05.785Z,31.70
2018-08-16T11:01:05.774Z,31.93
2018-08-16T11:02:05.732Z,32.26
2018-08-16T11:03:05.741Z,32.03
2018-08-16T11:04:05.709Z,32.40
2018-08-16T11:05:05.672Z,32.41
2018-08-16T11:06:05.648Z,32.60
2018-08-16T11:07:05.666Z,32.38
2018-08-16T11:08:05.618Z,32.74
2018-08-16T11:09:05.612Z,32.74
2018-08-16T11:10:05.584Z,32.87
2018-08-16T11:11:05.574Z,32.87
2018-08-16T11:12:05.562Z,33.14
2018-08-16T11:13:05.536Z,32.97
2018-08-16T11:14:05.525Z,33.15
2018-08-16T11:15:05.480Z,33.19
2018-08-16T11:16:05.469Z,33.54
2018-08-16T11:17:05.452Z,33.51
2018-08-16T11:18:05.433Z,33.57
2018-08-16T11:19:05.406Z,33.69
2018-08-16T11:20:05.387Z,33.53
2018-08-16T11:21:05.405Z,33.47
2018-08-16T11:22:05.385Z,33.31
2018-08-16T11:23:05.355Z,32.96
2018-08-16T11:24:05.331Z,33.35
2018-08-16T11:25:05.332Z,33.45
2018-08-16T11:26:05.297Z,33.72
2018-08-16T11:27:05.275Z,33.59
2018-08-16T11:28:05.262Z,33.57
2018-08-16T11:29:05.231Z,33.78
2018-08-16T11:30:05.220Z,33.75
2018-08-16T11:31:05.223Z,34.03
2018-08-16T11:32:05.173Z,34.10
2018-08-16T11:33:05.173Z,33.84
2018-08-16T11:34:05.140Z,33.91
2018-08-16T11:35:05.144Z,33.60
2018-08-16T11:36:05.117Z,33.69
2018-08-16T11:37:05.092Z,33.59
2018-08-16T11:38:05.070Z,33.71
2018-08-16T11:39:05.061Z,33.78
2018-08-16T11:40:05.032Z,33.56
2018-08-16T11:41:05.023Z,33.54
2018-08-16T11:42:05.017Z,33.82
2018-08-16T11:43:04.981Z,34.12
2018-08-16T11:44:04.969Z,34.30
2018-08-16T11:45:04.948Z,34.43
2018-08-16T11:46:04.929Z,34.44
2018-08-16T11:47:04.918Z,34.44
2018-08-16T11:48:04.901Z,34.40
2018-08-16T11:49:04.871Z,34.35
2018-08-16T11:50:04.863Z,34.16
2018-08-16T11:51:04.830Z,33.79
2018-08-16T11:52:04.815Z,33.87
2018-08-16T11:53:04.844Z,33.88
2018-08-16T11:54:04.799Z,33.78
2018-08-16T11:55:04.761Z,33.90
2018-08-16T11:56:04.761Z,33.91
2018-08-16T11:57:04.743Z,34.16
2018-08-16T11:58:04.709Z,33.91
2018-08-16T11:59:04.733Z,34.08
2018-08-16T12:00:04.735Z,33.72
2018-08-16T12:01:04.656Z,33.84
2018-08-16T12:02:04.747Z,33.76
2018-08-16T12:03:04.640Z,33.72
2018-08-16T12:04:04.605Z,33.41
2018-08-16T12:05:04.595Z,33.37
2018-08-16T12:06:04.580Z,33.31
2018-08-16T12:07:04.573Z,33.49
2018-08-16T12:08:04.544Z,33.73
2018-08-16T12:09:04.525Z,33.75
2018-08-16T12:10:04.489Z,33.82
2018-08-16T12:11:04.479Z,34.21
2018-08-16T12:12:04.457Z,33.84
2018-08-16T12:13:04.445Z,34.15
2018-08-16T12:14:04.466Z,33.65
2018-08-16T12:15:04.427Z,33.54
2018-08-16T12:16:04.409Z,33.47
2018-08-16T12:17:04.390Z,33.29
2018-08-16T12:18:04.342Z,32.88
2018-08-16T12:19:04.358Z,32.69
2018-08-16T12:20:04.317Z,32.48
2018-08-16T12:21:04.332Z,32.56
2018-08-16T12:22:04.278Z,32.74
2018-08-16T12:23:04.258Z,33.12
2018-08-16T12:24:04.252Z,32.82
2018-08-16T12:25:04.239Z,32.77
2018-08-16T12:26:04.208Z,32.96
2018-08-16T12:27:04.196Z,33.04
2018-08-16T12:28:04.196Z,33.29
2018-08-16T12:30:04.155Z,33.93
2018-08-16T12:31:04.116Z,34.16
2018-08-16T12:32:04.124Z,34.15
2018-08-16T12:33:04.093Z,34.39
2018-08-16T12:34:04.084Z,34.64
2018-08-16T12:35:04.053Z,34.59
2018-08-16T12:36:04.034Z,34.66
2018-08-16T12:37:04.023Z,34.62
2018-08-16T12:38:04.009Z,34.52
2018-08-16T12:39:03.986Z,34.49
2018-08-16T12:40:03.952Z,34.17
2018-08-16T12:41:04.087Z,34.16
2018-08-16T12:42:03.977Z,33.95
2018-08-16T12:43:03.912Z,33.69
2018-08-16T12:44:03.893Z,33.78
2018-08-16T12:45:03.879Z,33.73
2018-08-16T12:46:03.861Z,33.60
2018-08-16T12:47:03.863Z,33.50
2018-08-16T12:48:03.826Z,33.94
2018-08-16T12:49:03.849Z,34.06
2018-08-16T12:50:03.789Z,33.90
2018-08-16T12:51:03.765Z,33.84
2018-08-16T12:52:03.754Z,33.93
2018-08-16T12:53:03.743Z,34.12
2018-08-16T12:54:03.740Z,34.16
2018-08-16T12:55:03.700Z,34.25
2018-08-16T12:56:03.691Z,34.35
2018-08-16T12:57:03.670Z,33.86
2018-08-16T12:58:03.646Z,33.54
2018-08-16T12:59:03.661Z,33.01
2018-08-16T13:00:03.616Z,32.52
2018-08-16T13:01:03.603Z,32.88
2018-08-16T13:02:03.587Z,32.85